sensor_id;sensor_type;location;lat;lon;timestamp;P1;durP1;ratioP1;P2;durP2;ratioP2
71671;SDS011;67659;45.554;11.812;2023-02-15T00:00:43;71.88;;;37.17;;
71671;SDS011;67659;45.554;11.812;2023-02-15T00:03:08;99.27;;;50.00;;
71671;SDS011;67659;45.554;11.812;2023-02-15T00:05:34;97.78;;;50.08;;
71671;SDS011;67659;45.554;11.812;2023-02-15T00:08:00;90.87;;;44.40;;
71671;SDS011;67659;45.554;11.812;2023-02-15T00:10:25;74.90;;;38.15;;
71671;SDS011;67659;45.554;11.812;2023-02-15T00:12:51;83.77;;;43.67;;
71671;SDS011;67659;45.554;11.812;2023-02-15T00:15:17;85.75;;;43.38;;
71671;SDS011;67659;45.554;11.812;2023-02-15T00:17:43;80.90;;;41.77;;
71671;SDS011;67659;45.554;11.812;2023-02-15T00:20:08;96.35;;;47.25;;
71671;SDS011;67659;45.554;11.812;2023-02-15T00:22:35;93.57;;;47.90;;
71671;SDS011;67659;45.554;11.812;2023-02-15T00:25:00;93.03;;;48.20;;
71671;SDS011;67659;45.554;11.812;2023-02-15T00:27:26;90.50;;;48.08;;
71671;SDS011;67659;45.554;11.812;2023-02-15T00:29:52;80.65;;;44.00;;
71671;SDS011;67659;45.554;11.812;2023-02-15T00:32:18;103.37;;;52.90;;
71671;SDS011;67659;45.554;11.812;2023-02-15T00:34:44;80.50;;;43.03;;
71671;SDS011;67659;45.554;11.812;2023-02-15T00:37:09;74.30;;;37.70;;
71671;SDS011;67659;45.554;11.812;2023-02-15T00:39:35;66.70;;;35.63;;
71671;SDS011;67659;45.554;11.812;2023-02-15T00:42:01;63.38;;;33.28;;
71671;SDS011;67659;45.554;11.812;2023-02-15T00:44:27;73.22;;;39.08;;
71671;SDS011;67659;45.554;11.812;2023-02-15T00:46:53;83.67;;;43.20;;
71671;SDS011;67659;45.554;11.812;2023-02-15T00:49:19;80.32;;;44.35;;
71671;SDS011;67659;45.554;11.812;2023-02-15T00:51:44;85.93;;;44.00;;
71671;SDS011;67659;45.554;11.812;2023-02-15T00:54:10;67.00;;;35.80;;
71671;SDS011;67659;45.554;11.812;2023-02-15T00:56:36;74.25;;;40.25;;
71671;SDS011;67659;45.554;11.812;2023-02-15T00:59:02;73.67;;;40.60;;
71671;SDS011;67659;45.554;11.812;2023-02-15T01:01:28;67.47;;;37.42;;
71671;SDS011;67659;45.554;11.812;2023-02-15T01:03:53;78.28;;;41.08;;
71671;SDS011;67659;45.554;11.812;2023-02-15T01:06:19;82.13;;;44.40;;
71671;SDS011;67659;45.554;11.812;2023-02-15T01:08:46;68.28;;;36.50;;
71671;SDS011;67659;45.554;11.812;2023-02-15T01:11:13;75.97;;;40.55;;
71671;SDS011;67659;45.554;11.812;2023-02-15T01:13:47;80.30;;;42.97;;
71671;SDS011;67659;45.554;11.812;2023-02-15T01:16:14;79.30;;;43.73;;
71671;SDS011;67659;45.554;11.812;2023-02-15T01:18:40;74.75;;;40.08;;
71671;SDS011;67659;45.554;11.812;2023-02-15T01:21:10;87.68;;;43.58;;
71671;SDS011;67659;45.554;11.812;2023-02-15T01:23:40;81.93;;;41.85;;
71671;SDS011;67659;45.554;11.812;2023-02-15T01:26:07;90.63;;;47.17;;
71671;SDS011;67659;45.554;11.812;2023-02-15T01:28:33;79.28;;;42.65;;
71671;SDS011;67659;45.554;11.812;2023-02-15T01:31:03;92.10;;;45.55;;
71671;SDS011;67659;45.554;11.812;2023-02-15T01:33:34;90.80;;;47.15;;
71671;SDS011;67659;45.554;11.812;2023-02-15T01:36:01;93.18;;;47.38;;
71671;SDS011;67659;45.554;11.812;2023-02-15T01:38:27;117.63;;;57.23;;
71671;SDS011;67659;45.554;11.812;2023-02-15T01:40:53;141.07;;;64.32;;
71671;SDS011;67659;45.554;11.812;2023-02-15T01:43:40;90.03;;;46.75;;
71671;SDS011;67659;45.554;11.812;2023-02-15T01:46:07;142.95;;;66.97;;
71671;SDS011;67659;45.554;11.812;2023-02-15T01:48:34;146.23;;;65.28;;
71671;SDS011;67659;45.554;11.812;2023-02-15T01:51:09;134.70;;;59.60;;
71671;SDS011;67659;45.554;11.812;2023-02-15T01:53:37;117.38;;;55.20;;
71671;SDS011;67659;45.554;11.812;2023-02-15T01:56:09;102.50;;;48.55;;
71671;SDS011;67659;45.554;11.812;2023-02-15T01:58:39;141.30;;;61.22;;
71671;SDS011;67659;45.554;11.812;2023-02-15T02:01:06;96.60;;;46.88;;
71671;SDS011;67659;45.554;11.812;2023-02-15T02:06:14;91.20;;;46.03;;
71671;SDS011;67659;45.554;11.812;2023-02-15T02:08:40;98.43;;;49.22;;
71671;SDS011;67659;45.554;11.812;2023-02-15T02:11:11;100.53;;;50.92;;
71671;SDS011;67659;45.554;11.812;2023-02-15T02:13:39;101.30;;;52.70;;
71671;SDS011;67659;45.554;11.812;2023-02-15T02:16:08;95.20;;;47.38;;
71671;SDS011;67659;45.554;11.812;2023-02-15T02:37:24;96.70;;;48.57;;
71671;SDS011;67659;45.554;11.812;2023-02-15T02:40:13;83.43;;;40.88;;
71671;SDS011;67659;45.554;11.812;2023-02-15T02:42:44;95.70;;;50.45;;
71671;SDS011;67659;45.554;11.812;2023-02-15T02:45:40;94.85;;;48.78;;
71671;SDS011;67659;45.554;11.812;2023-02-15T02:48:20;89.22;;;48.15;;
71671;SDS011;67659;45.554;11.812;2023-02-15T02:50:50;76.13;;;41.80;;
71671;SDS011;67659;45.554;11.812;2023-02-15T02:53:16;84.30;;;45.28;;
71671;SDS011;67659;45.554;11.812;2023-02-15T02:58:21;78.57;;;43.30;;
71671;SDS011;67659;45.554;11.812;2023-02-15T03:00:53;66.33;;;36.33;;
71671;SDS011;67659;45.554;11.812;2023-02-15T03:03:32;107.85;;;53.97;;
71671;SDS011;67659;45.554;11.812;2023-02-15T03:06:06;102.25;;;52.38;;
71671;SDS011;67659;45.554;11.812;2023-02-15T03:08:38;95.45;;;50.08;;
71671;SDS011;67659;45.554;11.812;2023-02-15T03:11:08;98.88;;;51.00;;
71671;SDS011;67659;45.554;11.812;2023-02-15T03:13:36;90.33;;;47.77;;
71671;SDS011;67659;45.554;11.812;2023-02-15T03:16:02;113.60;;;56.80;;
71671;SDS011;67659;45.554;11.812;2023-02-15T03:18:49;110.38;;;56.78;;
71671;SDS011;67659;45.554;11.812;2023-02-15T03:21:23;95.10;;;50.10;;
71671;SDS011;67659;45.554;11.812;2023-02-15T03:24:08;84.30;;;48.40;;
71671;SDS011;67659;45.554;11.812;2023-02-15T03:26:37;53.60;;;32.37;;
71671;SDS011;67659;45.554;11.812;2023-02-15T03:29:08;79.88;;;42.08;;
71671;SDS011;67659;45.554;11.812;2023-02-15T03:31:37;89.18;;;47.85;;
71671;SDS011;67659;45.554;11.812;2023-02-15T03:34:09;101.18;;;52.47;;
71671;SDS011;67659;45.554;11.812;2023-02-15T03:36:55;92.80;;;48.60;;
71671;SDS011;67659;45.554;11.812;2023-02-15T03:42:44;103.05;;;52.13;;
71671;SDS011;67659;45.554;11.812;2023-02-15T03:45:15;86.72;;;46.97;;
71671;SDS011;67659;45.554;11.812;2023-02-15T03:47:47;73.60;;;39.58;;
71671;SDS011;67659;45.554;11.812;2023-02-15T03:50:17;78.22;;;41.15;;
71671;SDS011;67659;45.554;11.812;2023-02-15T03:53:05;86.13;;;42.10;;
71671;SDS011;67659;45.554;11.812;2023-02-15T03:55:34;81.97;;;42.80;;
71671;SDS011;67659;45.554;11.812;2023-02-15T03:58:01;89.55;;;47.08;;
71671;SDS011;67659;45.554;11.812;2023-02-15T04:00:54;92.43;;;47.35;;
71671;SDS011;67659;45.554;11.812;2023-02-15T04:03:58;85.82;;;43.88;;
71671;SDS011;67659;45.554;11.812;2023-02-15T04:06:33;101.53;;;52.20;;
71671;SDS011;67659;45.554;11.812;2023-02-15T04:08:58;113.70;;;55.47;;
71671;SDS011;67659;45.554;11.812;2023-02-15T04:11:42;75.07;;;39.97;;
71671;SDS011;67659;45.554;11.812;2023-02-15T04:14:08;85.93;;;44.73;;
71671;SDS011;67659;45.554;11.812;2023-02-15T04:16:53;104.38;;;51.70;;
71671;SDS011;67659;45.554;11.812;2023-02-15T04:19:18;71.70;;;39.00;;
71671;SDS011;67659;45.554;11.812;2023-02-15T04:22:03;105.10;;;52.03;;
71671;SDS011;67659;45.554;11.812;2023-02-15T04:24:47;75.87;;;42.23;;
71671;SDS011;67659;45.554;11.812;2023-02-15T04:27:31;86.43;;;44.33;;
71671;SDS011;67659;45.554;11.812;2023-02-15T04:29:58;81.72;;;43.75;;
71671;SDS011;67659;45.554;11.812;2023-02-15T04:32:24;81.63;;;42.90;;
71671;SDS011;67659;45.554;11.812;2023-02-15T04:34:53;90.15;;;48.40;;
71671;SDS011;67659;45.554;11.812;2023-02-15T04:37:19;82.03;;;44.00;;
71671;SDS011;67659;45.554;11.812;2023-02-15T04:39:45;83.85;;;45.50;;
71671;SDS011;67659;45.554;11.812;2023-02-15T04:42:12;92.60;;;45.47;;
71671;SDS011;67659;45.554;11.812;2023-02-15T04:44:38;96.18;;;46.53;;
71671;SDS011;67659;45.554;11.812;2023-02-15T04:47:03;106.77;;;50.30;;
71671;SDS011;67659;45.554;11.812;2023-02-15T04:49:29;117.70;;;56.87;;
71671;SDS011;67659;45.554;11.812;2023-02-15T04:51:55;112.30;;;54.20;;
71671;SDS011;67659;45.554;11.812;2023-02-15T04:54:21;96.43;;;48.47;;
71671;SDS011;67659;45.554;11.812;2023-02-15T04:56:46;84.27;;;45.37;;
71671;SDS011;67659;45.554;11.812;2023-02-15T04:59:12;94.45;;;48.08;;
71671;SDS011;67659;45.554;11.812;2023-02-15T05:01:38;79.60;;;43.33;;
71671;SDS011;67659;45.554;11.812;2023-02-15T05:04:04;67.63;;;39.93;;
71671;SDS011;67659;45.554;11.812;2023-02-15T05:06:30;97.88;;;50.55;;
71671;SDS011;67659;45.554;11.812;2023-02-15T05:08:55;82.93;;;44.50;;
71671;SDS011;67659;45.554;11.812;2023-02-15T05:11:23;80.88;;;43.03;;
71671;SDS011;67659;45.554;11.812;2023-02-15T05:13:49;77.45;;;43.60;;
71671;SDS011;67659;45.554;11.812;2023-02-15T05:16:15;67.33;;;40.70;;
71671;SDS011;67659;45.554;11.812;2023-02-15T05:18:41;60.42;;;33.83;;
71671;SDS011;67659;45.554;11.812;2023-02-15T05:21:07;101.37;;;47.00;;
71671;SDS011;67659;45.554;11.812;2023-02-15T05:23:32;144.30;;;62.15;;
71671;SDS011;67659;45.554;11.812;2023-02-15T05:25:58;97.50;;;44.87;;
71671;SDS011;67659;45.554;11.812;2023-02-15T05:28:42;119.88;;;50.80;;
71671;SDS011;67659;45.554;11.812;2023-02-15T05:31:14;90.43;;;43.00;;
71671;SDS011;67659;45.554;11.812;2023-02-15T05:33:44;75.40;;;41.33;;
71671;SDS011;67659;45.554;11.812;2023-02-15T05:36:10;110.83;;;53.53;;
71671;SDS011;67659;45.554;11.812;2023-02-15T05:38:36;106.95;;;54.10;;
71671;SDS011;67659;45.554;11.812;2023-02-15T05:41:06;111.82;;;55.17;;
71671;SDS011;67659;45.554;11.812;2023-02-15T05:43:32;96.40;;;50.63;;
71671;SDS011;67659;45.554;11.812;2023-02-15T05:45:58;100.13;;;51.95;;
71671;SDS011;67659;45.554;11.812;2023-02-15T05:48:25;94.87;;;50.07;;
71671;SDS011;67659;45.554;11.812;2023-02-15T05:50:58;84.35;;;45.20;;
71671;SDS011;67659;45.554;11.812;2023-02-15T05:53:30;97.38;;;51.83;;
71671;SDS011;67659;45.554;11.812;2023-02-15T05:55:58;87.75;;;46.42;;
71671;SDS011;67659;45.554;11.812;2023-02-15T05:58:32;78.75;;;40.83;;
71671;SDS011;67659;45.554;11.812;2023-02-15T06:00:59;83.57;;;43.63;;
71671;SDS011;67659;45.554;11.812;2023-02-15T06:03:32;88.00;;;44.55;;
71671;SDS011;67659;45.554;11.812;2023-02-15T06:05:58;96.60;;;46.15;;
71671;SDS011;67659;45.554;11.812;2023-02-15T06:08:24;102.10;;;50.85;;
71671;SDS011;67659;45.554;11.812;2023-02-15T06:10:50;89.13;;;47.67;;
71671;SDS011;67659;45.554;11.812;2023-02-15T06:13:15;105.45;;;51.60;;
71671;SDS011;67659;45.554;11.812;2023-02-15T06:15:41;102.67;;;50.97;;
71671;SDS011;67659;45.554;11.812;2023-02-15T06:18:07;100.25;;;51.53;;
71671;SDS011;67659;45.554;11.812;2023-02-15T06:20:32;95.23;;;49.80;;
71671;SDS011;67659;45.554;11.812;2023-02-15T06:22:58;104.50;;;51.58;;
71671;SDS011;67659;45.554;11.812;2023-02-15T06:25:24;85.23;;;43.60;;
71671;SDS011;67659;45.554;11.812;2023-02-15T06:27:50;80.13;;;42.05;;
71671;SDS011;67659;45.554;11.812;2023-02-15T06:30:16;94.68;;;49.25;;
71671;SDS011;67659;45.554;11.812;2023-02-15T06:32:42;84.77;;;45.00;;
71671;SDS011;67659;45.554;11.812;2023-02-15T06:35:08;87.57;;;44.47;;
71671;SDS011;67659;45.554;11.812;2023-02-15T06:37:33;81.80;;;43.70;;
71671;SDS011;67659;45.554;11.812;2023-02-15T06:39:59;81.40;;;43.80;;
71671;SDS011;67659;45.554;11.812;2023-02-15T06:42:25;81.07;;;42.47;;
71671;SDS011;67659;45.554;11.812;2023-02-15T06:44:50;82.20;;;42.87;;
71671;SDS011;67659;45.554;11.812;2023-02-15T06:47:16;68.13;;;37.65;;
71671;SDS011;67659;45.554;11.812;2023-02-15T06:49:42;71.53;;;38.63;;
71671;SDS011;67659;45.554;11.812;2023-02-15T06:52:08;90.28;;;47.85;;
71671;SDS011;67659;45.554;11.812;2023-02-15T06:54:33;74.20;;;38.97;;
71671;SDS011;67659;45.554;11.812;2023-02-15T06:56:59;68.60;;;39.45;;
71671;SDS011;67659;45.554;11.812;2023-02-15T06:59:25;77.07;;;43.37;;
71671;SDS011;67659;45.554;11.812;2023-02-15T07:01:50;85.57;;;45.43;;
71671;SDS011;67659;45.554;11.812;2023-02-15T07:04:16;83.40;;;45.75;;
71671;SDS011;67659;45.554;11.812;2023-02-15T07:06:42;75.43;;;41.73;;
71671;SDS011;67659;45.554;11.812;2023-02-15T07:09:08;78.78;;;44.63;;
71671;SDS011;67659;45.554;11.812;2023-02-15T07:11:34;76.72;;;44.58;;
71671;SDS011;67659;45.554;11.812;2023-02-15T07:14:20;68.27;;;41.20;;
71671;SDS011;67659;45.554;11.812;2023-02-15T07:16:45;83.40;;;45.30;;
71671;SDS011;67659;45.554;11.812;2023-02-15T07:19:11;64.77;;;39.37;;
71671;SDS011;67659;45.554;11.812;2023-02-15T07:21:37;63.05;;;38.85;;
71671;SDS011;67659;45.554;11.812;2023-02-15T07:24:03;60.83;;;36.60;;
71671;SDS011;67659;45.554;11.812;2023-02-15T07:26:30;63.67;;;39.07;;
71671;SDS011;67659;45.554;11.812;2023-02-15T07:28:57;61.83;;;39.88;;
71671;SDS011;67659;45.554;11.812;2023-02-15T07:31:22;53.88;;;36.22;;
71671;SDS011;67659;45.554;11.812;2023-02-15T07:33:48;69.00;;;44.10;;
71671;SDS011;67659;45.554;11.812;2023-02-15T07:36:14;64.63;;;44.10;;
71671;SDS011;67659;45.554;11.812;2023-02-15T07:38:40;66.73;;;43.30;;
71671;SDS011;67659;45.554;11.812;2023-02-15T07:41:08;63.72;;;42.83;;
71671;SDS011;67659;45.554;11.812;2023-02-15T07:43:38;71.50;;;45.95;;
71671;SDS011;67659;45.554;11.812;2023-02-15T07:46:07;76.72;;;48.83;;
71671;SDS011;67659;45.554;11.812;2023-02-15T07:48:37;75.93;;;49.00;;
71671;SDS011;67659;45.554;11.812;2023-02-15T07:51:07;71.33;;;46.57;;
71671;SDS011;67659;45.554;11.812;2023-02-15T07:53:41;71.65;;;47.50;;
71671;SDS011;67659;45.554;11.812;2023-02-15T07:56:09;72.13;;;48.65;;
71671;SDS011;67659;45.554;11.812;2023-02-15T07:58:35;64.85;;;44.60;;
71671;SDS011;67659;45.554;11.812;2023-02-15T08:01:27;68.00;;;46.17;;
71671;SDS011;67659;45.554;11.812;2023-02-15T08:03:56;57.53;;;40.53;;
71671;SDS011;67659;45.554;11.812;2023-02-15T08:06:23;53.88;;;36.42;;
71671;SDS011;67659;45.554;11.812;2023-02-15T08:08:51;65.53;;;44.40;;
71671;SDS011;67659;45.554;11.812;2023-02-15T08:11:22;64.28;;;44.92;;
71671;SDS011;67659;45.554;11.812;2023-02-15T08:13:59;74.55;;;42.33;;
71671;SDS011;67659;45.554;11.812;2023-02-15T08:16:41;56.70;;;40.53;;
71671;SDS011;67659;45.554;11.812;2023-02-15T08:21:50;62.47;;;45.00;;
71671;SDS011;67659;45.554;11.812;2023-02-15T08:24:18;61.38;;;43.60;;
71671;SDS011;67659;45.554;11.812;2023-02-15T08:26:46;57.83;;;43.35;;
71671;SDS011;67659;45.554;11.812;2023-02-15T08:29:13;59.17;;;44.87;;
71671;SDS011;67659;45.554;11.812;2023-02-15T08:31:41;66.80;;;48.78;;
71671;SDS011;67659;45.554;11.812;2023-02-15T08:34:10;68.28;;;50.85;;
71671;SDS011;67659;45.554;11.812;2023-02-15T08:36:38;68.80;;;49.60;;
71671;SDS011;67659;45.554;11.812;2023-02-15T08:39:05;69.30;;;50.20;;
71671;SDS011;67659;45.554;11.812;2023-02-15T08:41:34;64.38;;;45.95;;
71671;SDS011;67659;45.554;11.812;2023-02-15T08:44:03;62.28;;;46.38;;
71671;SDS011;67659;45.554;11.812;2023-02-15T08:46:34;65.32;;;49.40;;
71671;SDS011;67659;45.554;11.812;2023-02-15T08:49:01;68.35;;;50.70;;
71671;SDS011;67659;45.554;11.812;2023-02-15T08:51:28;67.67;;;49.63;;
71671;SDS011;67659;45.554;11.812;2023-02-15T08:53:56;65.43;;;49.00;;
71671;SDS011;67659;45.554;11.812;2023-02-15T08:56:25;67.60;;;48.95;;
71671;SDS011;67659;45.554;11.812;2023-02-15T08:58:56;65.30;;;48.38;;
71671;SDS011;67659;45.554;11.812;2023-02-15T09:01:26;66.70;;;50.65;;
71671;SDS011;67659;45.554;11.812;2023-02-15T09:04:01;66.67;;;49.87;;
71671;SDS011;67659;45.554;11.812;2023-02-15T09:06:29;66.63;;;50.85;;
71671;SDS011;67659;45.554;11.812;2023-02-15T09:08:55;66.57;;;50.20;;
71671;SDS011;67659;45.554;11.812;2023-02-15T09:11:22;65.40;;;49.05;;
71671;SDS011;67659;45.554;11.812;2023-02-15T09:14:02;61.65;;;49.28;;
71671;SDS011;67659;45.554;11.812;2023-02-15T09:16:34;67.83;;;50.73;;
71671;SDS011;67659;45.554;11.812;2023-02-15T09:19:03;60.42;;;47.22;;
71671;SDS011;67659;45.554;11.812;2023-02-15T09:21:29;62.72;;;48.83;;
71671;SDS011;67659;45.554;11.812;2023-02-15T09:24:00;61.33;;;46.70;;
71671;SDS011;67659;45.554;11.812;2023-02-15T09:26:28;55.15;;;43.10;;
71671;SDS011;67659;45.554;11.812;2023-02-15T09:28:56;53.90;;;40.57;;
71671;SDS011;67659;45.554;11.812;2023-02-15T09:31:25;52.78;;;41.20;;
71671;SDS011;67659;45.554;11.812;2023-02-15T09:33:53;52.35;;;41.42;;
71671;SDS011;67659;45.554;11.812;2023-02-15T09:36:25;47.35;;;38.95;;
71671;SDS011;67659;45.554;11.812;2023-02-15T09:38:57;48.35;;;38.70;;
71671;SDS011;67659;45.554;11.812;2023-02-15T09:41:29;58.87;;;38.47;;
71671;SDS011;67659;45.554;11.812;2023-02-15T09:47:16;55.00;;;43.33;;
71671;SDS011;67659;45.554;11.812;2023-02-15T10:01:58;48.65;;;39.17;;
71671;SDS011;67659;45.554;11.812;2023-02-15T10:06:42;48.40;;;37.85;;
71671;SDS011;67659;45.554;11.812;2023-02-15T10:14:41;38.53;;;29.90;;
71671;SDS011;67659;45.554;11.812;2023-02-15T10:25:53;42.28;;;31.05;;
71671;SDS011;67659;45.554;11.812;2023-02-15T10:28:43;39.10;;;30.92;;
71671;SDS011;67659;45.554;11.812;2023-02-15T10:50:27;41.93;;;30.97;;
71671;SDS011;67659;45.554;11.812;2023-02-15T11:07:35;35.75;;;27.35;;
71671;SDS011;67659;45.554;11.812;2023-02-15T11:12:43;44.75;;;31.58;;
71671;SDS011;67659;45.554;11.812;2023-02-15T11:15:15;39.33;;;31.25;;
71671;SDS011;67659;45.554;11.812;2023-02-15T11:17:52;42.37;;;30.97;;
71671;SDS011;67659;45.554;11.812;2023-02-15T11:20:45;43.03;;;32.15;;
71671;SDS011;67659;45.554;11.812;2023-02-15T11:23:20;40.45;;;29.90;;
71671;SDS011;67659;45.554;11.812;2023-02-15T11:25:56;39.28;;;29.92;;
71671;SDS011;67659;45.554;11.812;2023-02-15T11:28:33;37.67;;;27.30;;
71671;SDS011;67659;45.554;11.812;2023-02-15T11:31:41;40.23;;;30.13;;
71671;SDS011;67659;45.554;11.812;2023-02-15T11:34:20;39.53;;;29.70;;
71671;SDS011;67659;45.554;11.812;2023-02-15T11:36:58;44.28;;;31.17;;
71671;SDS011;67659;45.554;11.812;2023-02-15T11:39:30;36.70;;;27.90;;
71671;SDS011;67659;45.554;11.812;2023-02-15T11:41:59;42.15;;;31.02;;
71671;SDS011;67659;45.554;11.812;2023-02-15T11:44:32;40.73;;;30.20;;
71671;SDS011;67659;45.554;11.812;2023-02-15T11:47:21;45.53;;;33.10;;
71671;SDS011;67659;45.554;11.812;2023-02-15T11:49:47;42.08;;;30.30;;
71671;SDS011;67659;45.554;11.812;2023-02-15T11:52:14;37.03;;;27.48;;
71671;SDS011;67659;45.554;11.812;2023-02-15T11:54:43;42.27;;;30.30;;
71671;SDS011;67659;45.554;11.812;2023-02-15T11:57:37;43.83;;;31.08;;
71671;SDS011;67659;45.554;11.812;2023-02-15T12:00:19;48.20;;;33.83;;
71671;SDS011;67659;45.554;11.812;2023-02-15T12:02:56;40.97;;;30.58;;
71671;SDS011;67659;45.554;11.812;2023-02-15T12:05:23;44.92;;;31.55;;
71671;SDS011;67659;45.554;11.812;2023-02-15T12:07:54;42.40;;;31.43;;
71671;SDS011;67659;45.554;11.812;2023-02-15T12:10:27;40.72;;;30.45;;
71671;SDS011;67659;45.554;11.812;2023-02-15T12:13:15;44.28;;;32.47;;
71671;SDS011;67659;45.554;11.812;2023-02-15T12:15:46;41.13;;;31.25;;
71671;SDS011;67659;45.554;11.812;2023-02-15T12:18:36;45.88;;;34.72;;
71671;SDS011;67659;45.554;11.812;2023-02-15T12:21:08;44.70;;;33.50;;
71671;SDS011;67659;45.554;11.812;2023-02-15T12:24:21;43.28;;;33.03;;
71671;SDS011;67659;45.554;11.812;2023-02-15T12:27:04;44.40;;;31.70;;
71671;SDS011;67659;45.554;11.812;2023-02-15T12:29:45;38.83;;;28.70;;
71671;SDS011;67659;45.554;11.812;2023-02-15T12:34:53;42.33;;;31.87;;
71671;SDS011;67659;45.554;11.812;2023-02-15T12:37:27;45.13;;;32.80;;
71671;SDS011;67659;45.554;11.812;2023-02-15T12:39:58;41.15;;;30.73;;
71671;SDS011;67659;45.554;11.812;2023-02-15T12:42:26;41.80;;;29.73;;
71671;SDS011;67659;45.554;11.812;2023-02-15T12:45:19;43.83;;;29.80;;
71671;SDS011;67659;45.554;11.812;2023-02-15T12:47:50;45.13;;;34.03;;
71671;SDS011;67659;45.554;11.812;2023-02-15T12:50:41;42.85;;;31.17;;
71671;SDS011;67659;45.554;11.812;2023-02-15T12:53:22;45.78;;;33.72;;
71671;SDS011;67659;45.554;11.812;2023-02-15T12:55:57;47.97;;;34.40;;
71671;SDS011;67659;45.554;11.812;2023-02-15T12:58:32;44.70;;;34.03;;
71671;SDS011;67659;45.554;11.812;2023-02-15T13:03:38;46.90;;;33.50;;
71671;SDS011;67659;45.554;11.812;2023-02-15T13:06:34;47.63;;;33.45;;
71671;SDS011;67659;45.554;11.812;2023-02-15T13:09:15;44.97;;;32.05;;
71671;SDS011;67659;45.554;11.812;2023-02-15T13:12:32;51.42;;;36.05;;
71671;SDS011;67659;45.554;11.812;2023-02-15T13:14:54;46.67;;;34.13;;
71671;SDS011;67659;45.554;11.812;2023-02-15T13:17:24;49.13;;;34.88;;
71671;SDS011;67659;45.554;11.812;2023-02-15T13:20:39;48.25;;;34.33;;
71671;SDS011;67659;45.554;11.812;2023-02-15T13:22:50;48.58;;;34.95;;
71671;SDS011;67659;45.554;11.812;2023-02-15T13:25:22;51.65;;;35.80;;
71671;SDS011;67659;45.554;11.812;2023-02-15T13:27:51;47.50;;;35.03;;
71671;SDS011;67659;45.554;11.812;2023-02-15T13:30:25;47.92;;;34.95;;
71671;SDS011;67659;45.554;11.812;2023-02-15T13:33:04;42.13;;;29.58;;
71671;SDS011;67659;45.554;11.812;2023-02-15T13:35:42;49.47;;;34.20;;
71671;SDS011;67659;45.554;11.812;2023-02-15T13:38:40;46.50;;;33.50;;
71671;SDS011;67659;45.554;11.812;2023-02-15T13:41:20;41.20;;;28.83;;
71671;SDS011;67659;45.554;11.812;2023-02-15T13:46:47;55.13;;;37.40;;
71671;SDS011;67659;45.554;11.812;2023-02-15T13:52:24;43.28;;;30.33;;
71671;SDS011;67659;45.554;11.812;2023-02-15T13:54:58;41.03;;;26.80;;
71671;SDS011;67659;45.554;11.812;2023-02-15T13:57:40;40.38;;;26.35;;
71671;SDS011;67659;45.554;11.812;2023-02-15T14:00:39;40.53;;;27.20;;
71671;SDS011;67659;45.554;11.812;2023-02-15T14:11:44;40.22;;;26.23;;
71671;SDS011;67659;45.554;11.812;2023-02-15T14:17:24;44.63;;;28.30;;
71671;SDS011;67659;45.554;11.812;2023-02-15T14:20:02;38.10;;;25.33;;
71671;SDS011;67659;45.554;11.812;2023-02-15T14:25:34;41.33;;;26.30;;
71671;SDS011;67659;45.554;11.812;2023-02-15T14:28:54;44.53;;;28.92;;
71671;SDS011;67659;45.554;11.812;2023-02-15T14:31:05;49.10;;;32.67;;
71671;SDS011;67659;45.554;11.812;2023-02-15T14:36:06;47.20;;;30.60;;
71671;SDS011;67659;45.554;11.812;2023-02-15T14:41:58;43.13;;;28.23;;
71671;SDS011;67659;45.554;11.812;2023-02-15T14:44:42;42.20;;;27.00;;
71671;SDS011;67659;45.554;11.812;2023-02-15T14:47:20;44.50;;;27.08;;
71671;SDS011;67659;45.554;11.812;2023-02-15T14:49:49;46.50;;;27.20;;
71671;SDS011;67659;45.554;11.812;2023-02-15T14:52:15;49.33;;;29.63;;
71671;SDS011;67659;45.554;11.812;2023-02-15T15:02:27;53.17;;;31.20;;
71671;SDS011;67659;45.554;11.812;2023-02-15T15:05:10;50.45;;;30.02;;
71671;SDS011;67659;45.554;11.812;2023-02-15T15:08:03;45.88;;;27.00;;
71671;SDS011;67659;45.554;11.812;2023-02-15T15:15:55;44.90;;;25.73;;
71671;SDS011;67659;45.554;11.812;2023-02-15T15:21:08;46.95;;;27.70;;
71671;SDS011;67659;45.554;11.812;2023-02-15T15:23:41;51.40;;;29.27;;
71671;SDS011;67659;45.554;11.812;2023-02-15T15:29:05;49.03;;;28.25;;
71671;SDS011;67659;45.554;11.812;2023-02-15T15:34:17;53.83;;;30.98;;
71671;SDS011;67659;45.554;11.812;2023-02-15T15:37:13;55.55;;;30.73;;
71671;SDS011;67659;45.554;11.812;2023-02-15T15:40:29;53.83;;;30.70;;
71671;SDS011;67659;45.554;11.812;2023-02-15T15:49:01;52.13;;;31.42;;
71671;SDS011;67659;45.554;11.812;2023-02-15T15:51:37;54.78;;;30.27;;
71671;SDS011;67659;45.554;11.812;2023-02-15T15:54:05;58.30;;;30.87;;
71671;SDS011;67659;45.554;11.812;2023-02-15T15:56:37;50.85;;;27.98;;
71671;SDS011;67659;45.554;11.812;2023-02-15T15:59:06;50.25;;;27.98;;
71671;SDS011;67659;45.554;11.812;2023-02-15T16:01:40;46.42;;;27.25;;
71671;SDS011;67659;45.554;11.812;2023-02-15T16:04:11;46.80;;;26.87;;
71671;SDS011;67659;45.554;11.812;2023-02-15T16:06:39;54.30;;;27.13;;
71671;SDS011;67659;45.554;11.812;2023-02-15T16:09:25;69.22;;;28.05;;
71671;SDS011;67659;45.554;11.812;2023-02-15T16:11:53;53.42;;;27.10;;
71671;SDS011;67659;45.554;11.812;2023-02-15T16:14:30;57.67;;;28.13;;
71671;SDS011;67659;45.554;11.812;2023-02-15T16:17:00;80.70;;;29.00;;
71671;SDS011;67659;45.554;11.812;2023-02-15T16:19:30;55.60;;;28.77;;
71671;SDS011;67659;45.554;11.812;2023-02-15T16:22:00;50.05;;;26.70;;
71671;SDS011;67659;45.554;11.812;2023-02-15T16:29:57;50.53;;;26.87;;
71671;SDS011;67659;45.554;11.812;2023-02-15T16:32:23;51.55;;;26.20;;
71671;SDS011;67659;45.554;11.812;2023-02-15T16:34:55;46.45;;;25.08;;
71671;SDS011;67659;45.554;11.812;2023-02-15T16:37:24;43.75;;;23.80;;
71671;SDS011;67659;45.554;11.812;2023-02-15T16:40:00;54.57;;;26.03;;
71671;SDS011;67659;45.554;11.812;2023-02-15T16:42:26;49.72;;;25.42;;
71671;SDS011;67659;45.554;11.812;2023-02-15T16:45:01;57.83;;;32.08;;
71671;SDS011;67659;45.554;11.812;2023-02-15T16:47:40;57.22;;;31.30;;
71671;SDS011;67659;45.554;11.812;2023-02-15T16:50:22;55.45;;;29.45;;
71671;SDS011;67659;45.554;11.812;2023-02-15T16:52:53;59.40;;;29.60;;
71671;SDS011;67659;45.554;11.812;2023-02-15T16:55:23;52.45;;;29.60;;
71671;SDS011;67659;45.554;11.812;2023-02-15T16:57:51;50.88;;;27.55;;
71671;SDS011;67659;45.554;11.812;2023-02-15T17:00:26;54.53;;;27.98;;
71671;SDS011;67659;45.554;11.812;2023-02-15T17:05:31;59.00;;;28.77;;
71671;SDS011;67659;45.554;11.812;2023-02-15T17:10:28;50.45;;;25.45;;
71671;SDS011;67659;45.554;11.812;2023-02-15T17:13:00;41.03;;;22.08;;
71671;SDS011;67659;45.554;11.812;2023-02-15T17:18:26;50.97;;;24.43;;
71671;SDS011;67659;45.554;11.812;2023-02-15T17:20:55;51.00;;;27.92;;
71671;SDS011;67659;45.554;11.812;2023-02-15T17:26:16;47.15;;;25.30;;
71671;SDS011;67659;45.554;11.812;2023-02-15T17:28:46;50.95;;;26.85;;